Time,TemperatureF,DewpointF,PressureIn,WindDirection,WindDirectionDegrees,WindSpeedMPH,WindSpeedGustMPH,Humidity,HourlyPrecipIn,Conditions,Clouds,dailyrainin,SoftwareType,DateUTC
2013-07-19 00:00:00,55.8,55.0,29.92,SSW,200,0.0,0.0,97,0.00,,,0.00,Wunderground v.1.13,2013-07-19 04:00:00,
2013-07-19 00:10:00,55.9,55.1,29.92,SSW,200,0.0,0.0,97,0.00,,,0.00,Wunderground v.1.13,2013-07-19 04:10:00,
2013-07-19 00:20:00,56.0,54.9,29.92,SSW,200,0.0,0.0,96,0.00,,,0.00,Wunderground v.1.13,2013-07-19 04:20:00,
2013-07-19 00:30:00,55.9,54.8,29.91,SSW,200,0.0,0.0,96,0.00,,,0.00,Wunderground v.1.13,2013-07-19 04:30:00,
2013-07-19 00:40:00,55.8,54.7,29.91,SSW,200,0.0,0.0,96,0.00,,,0.00,Wunderground v.1.13,2013-07-19 04:40:00,
2013-07-19 00:50:00,55.7,54.9,29.91,SSW,200,0.0,0.0,97,0.00,,,0.00,Wunderground v.1.13,2013-07-19 04:50:00,
2013-07-19 01:00:00,55.7,54.9,29.90,SSW,200,0.0,0.0,97,0.00,,,0.00,Wunderground v.1.13,2013-07-19 05:00:00,
2013-07-19 01:10:00,55.6,54.8,29.90,SSW,200,0.0,0.0,97,0.00,,,0.00,Wunderground v.1.13,2013-07-19 05:10:00,
2013-07-19 01:20:00,55.6,54.8,29.90,SSW,200,0.0,0.0,97,0.00,,,0.00,Wunderground v.1.13,2013-07-19 05:20:00,
2013-07-19 01:30:00,55.6,54.8,29.89,SSW,200,0.0,0.0,97,0.00,,,0.00,Wunderground v.1.13,2013-07-19 05:30:00,
2013-07-19 01:40:00,55.6,54.8,29.89,SSW,200,0.0,0.0,97,0.00,,,0.00,Wunderground v.1.13,2013-07-19 05:40:00,
2013-07-19 01:50:00,55.5,54.7,29.89,SSW,200,0.0,0.0,97,0.00,,,0.00,Wunderground v.1.13,2013-07-19 05:50:00,
2013-07-19 02:00:00,55.4,54.8,29.89,SSW,200,0.0,0.0,98,0.00,,,0.00,Wunderground v.1.13,2013-07-19 06:00:00,
2013-07-19 02:10:00,55.6,55.0,29.88,SSW,200,0.0,0.0,98,0.00,,,0.00,Wunderground v.1.13,2013-07-19 06:10:00,
2013-07-19 02:20:00,55.6,55.0,29.88,SSW,200,0.0,0.0,98,0.00,,,0.00,Wunderground v.1.13,2013-07-19 06:20:00,
2013-07-19 02:30:00,55.6,55.0,29.88,SSW,200,0.0,0.0,98,0.00,,,0.00,Wunderground v.1.13,2013-07-19 06:30:00,
2013-07-19 02:40:00,55.7,55.1,29.88,SSW,200,0.0,0.0,98,0.00,,,0.00,Wunderground v.1.13,2013-07-19 06:40:00,
2013-07-19 02:50:00,55.7,55.1,29.87,SSW,200,0.0,0.0,98,0.00,,,0.00,Wunderground v.1.13,2013-07-19 06:50:00,
2013-07-19 03:00:00,55.7,55.1,29.87,SSW,200,0.0,0.0,98,0.00,,,0.00,Wunderground v.1.13,2013-07-19 07:00:00,
2013-07-19 03:10:00,55.7,55.1,29.87,SSW,200,0.0,0.0,98,0.00,,,0.00,Wunderground v.1.13,2013-07-19 07:10:00,
2013-07-19 03:20:00,55.7,55.4,29.86,SSW,200,0.0,0.0,99,0.00,,,0.00,Wunderground v.1.13,2013-07-19 07:20:00,
2013-07-19 03:30:00,55.7,55.1,29.85,SSW,200,0.0,0.0,98,0.00,,,0.00,Wunderground v.1.13,2013-07-19 07:30:00,
2013-07-19 03:40:00,55.6,55.0,29.85,SSW,200,0.0,0.0,98,0.00,,,0.00,Wunderground v.1.13,2013-07-19 07:40:00,
2013-07-19 03:50:00,55.7,55.4,29.84,SSW,200,0.0,0.0,99,0.00,,,0.00,Wunderground v.1.13,2013-07-19 07:50:00,
2013-07-19 04:00:00,55.6,55.0,29.85,SSW,200,0.0,0.0,98,0.00,,,0.00,Wunderground v.1.13,2013-07-19 08:00:00,
2013-07-19 04:10:00,55.7,55.4,29.85,SSW,200,0.0,0.0,99,0.00,,,0.00,Wunderground v.1.13,2013-07-19 08:10:00,
2013-07-19 04:20:00,55.7,55.4,29.84,SSW,200,0.0,0.0,99,0.00,,,0.00,Wunderground v.1.13,2013-07-19 08:20:00,
2013-07-19 04:30:00,55.8,55.5,29.83,SW,229,0.0,0.0,99,0.00,,,0.00,Wunderground v.1.13,2013-07-19 08:30:00,
2013-07-19 04:40:00,56.3,55.7,29.83,WNW,302,1.0,1.0,98,0.00,,,0.00,Wunderground v.1.13,2013-07-19 08:40:00,
2013-07-19 04:50:00,58.0,55.7,29.82,WNW,294,2.0,3.0,92,0.00,,,0.00,Wunderground v.1.13,2013-07-19 08:50:00,
2013-07-19 05:00:00,59.4,55.8,29.81,NNW,329,3.0,4.0,88,0.00,,,0.00,Wunderground v.1.13,2013-07-19 09:00:00,
2013-07-19 05:10:00,60.1,56.2,29.81,WNW,296,3.0,3.0,87,0.00,,,0.00,Wunderground v.1.13,2013-07-19 09:10:00,
2013-07-19 05:20:00,60.3,56.1,29.81,NW,311,2.0,2.0,86,0.00,,,0.00,Wunderground v.1.13,2013-07-19 09:20:00,
2013-07-19 05:30:00,60.1,56.8,29.81,South,178,0.0,0.0,89,0.00,,,0.00,Wunderground v.1.13,2013-07-19 09:30:00,
2013-07-19 05:40:00,59.6,56.7,29.81,South,178,0.0,0.0,90,0.00,,,0.00,Wunderground v.1.13,2013-07-19 09:40:00,
2013-07-19 05:50:00,59.3,57.0,29.80,South,178,0.0,0.0,92,0.00,,,0.00,Wunderground v.1.13,2013-07-19 09:50:00,
2013-07-19 06:00:00,59.1,56.8,29.80,NW,321,0.0,0.0,92,0.00,,,0.00,Wunderground v.1.13,2013-07-19 10:00:00,
2013-07-19 06:10:00,58.9,56.9,29.79,NW,321,0.0,0.0,93,0.00,,,0.00,Wunderground v.1.13,2013-07-19 10:10:00,
2013-07-19 06:20:00,58.8,56.8,29.79,NW,321,0.0,0.0,93,0.00,,,0.00,Wunderground v.1.13,2013-07-19 10:20:00,
2013-07-19 06:30:00,58.7,57.3,29.79,NW,321,0.0,0.0,95,0.00,,,0.00,Wunderground v.1.13,2013-07-19 10:30:00,
2013-07-19 06:40:00,58.7,57.6,29.78,NW,321,0.0,0.0,96,0.00,,,0.00,Wunderground v.1.13,2013-07-19 10:40:00,
2013-07-19 06:50:00,58.8,57.4,29.78,NW,321,0.0,0.0,95,0.00,,,0.00,Wunderground v.1.13,2013-07-19 10:50:00,
2013-07-19 07:00:00,59.0,57.9,29.78,NW,321,0.0,0.0,96,0.00,,,0.00,Wunderground v.1.13,2013-07-19 11:00:00,
2013-07-19 07:10:00,59.1,57.7,29.77,NW,321,0.0,0.0,95,0.00,,,0.00,Wunderground v.1.13,2013-07-19 11:10:00,
2013-07-19 07:20:00,59.3,57.6,29.77,NW,321,0.0,0.0,94,0.00,,,0.00,Wunderground v.1.13,2013-07-19 11:20:00,
2013-07-19 07:30:00,59.5,58.1,29.77,NW,321,0.0,0.0,95,0.00,,,0.00,Wunderground v.1.13,2013-07-19 11:30:00,
2013-07-19 07:40:00,59.7,58.6,29.76,NW,321,0.0,0.0,96,0.00,,,0.00,Wunderground v.1.13,2013-07-19 11:40:00,
2013-07-19 07:50:00,60.1,59.0,29.76,NW,321,0.0,2.0,96,0.00,,,0.00,Wunderground v.1.13,2013-07-19 11:50:00,
2013-07-19 08:00:00,60.7,59.6,29.76,NW,321,0.0,0.0,96,0.40,,,0.03,Wunderground v.1.13,2013-07-19 12:00:00,
2013-07-19 08:10:00,60.7,59.3,29.76,NW,323,0.0,0.0,95,0.44,,,0.07,Wunderground v.1.13,2013-07-19 12:10:00,
2013-07-19 08:20:00,60.4,59.5,29.75,NW,323,0.0,0.0,97,0.10,,,0.10,Wunderground v.1.13,2013-07-19 12:20:00,
2013-07-19 08:30:00,60.6,60.0,29.74,NW,323,0.0,0.0,98,0.04,,,0.10,Wunderground v.1.13,2013-07-19 12:30:00,
2013-07-19 08:40:00,60.7,60.1,29.74,NW,323,0.0,0.0,98,0.00,,,0.10,Wunderground v.1.13,2013-07-19 12:40:00,
2013-07-19 08:50:00,60.8,60.2,29.73,NW,323,0.0,0.0,98,0.00,,,0.11,Wunderground v.1.13,2013-07-19 12:50:00,
2013-07-19 09:00:00,61.0,60.4,29.72,NW,323,0.0,0.0,98,0.12,,,0.13,Wunderground v.1.13,2013-07-19 13:00:00,
2013-07-19 09:10:00,61.3,61.0,29.71,NW,323,0.0,0.0,99,0.10,,,0.15,Wunderground v.1.13,2013-07-19 13:10:00,
2013-07-19 09:20:00,61.6,61.3,29.70,NW,323,0.0,0.0,99,0.05,,,0.15,Wunderground v.1.13,2013-07-19 13:20:00,
2013-07-19 10:00:00,63.1,63.1,29.66,West,278,1.0,1.0,100,0.07,,,0.41,Wunderground v.1.13,2013-07-19 14:00:00,
2013-07-19 10:10:00,64.1,64.1,29.66,North,5,1.0,1.0,100,0.05,,,0.41,Wunderground v.1.13,2013-07-19 14:10:00,
2013-07-19 10:20:00,64.4,64.4,29.66,WNW,284,1.0,2.0,100,0.31,,,0.44,Wunderground v.1.13,2013-07-19 14:20:00,
2013-07-19 10:30:00,64.9,64.9,29.65,NW,317,4.0,4.0,100,0.10,,,0.46,Wunderground v.1.13,2013-07-19 14:30:00,
2013-07-19 10:40:00,65.2,65.2,29.64,North,360,3.0,3.0,100,0.06,,,0.47,Wunderground v.1.13,2013-07-19 14:40:00,
2013-07-19 10:50:00,65.7,65.4,29.63,NW,307,4.0,4.0,99,0.05,,,0.47,Wunderground v.1.13,2013-07-19 14:50:00,
2013-07-19 11:00:00,66.5,66.2,29.62,NNW,345,4.0,4.0,99,0.00,,,0.47,Wunderground v.1.13,2013-07-19 15:00:00,
2013-07-19 11:10:00,66.6,66.0,29.62,NNW,337,4.0,11.0,98,0.00,,,0.47,Wunderground v.1.13,2013-07-19 15:10:00,
2013-07-19 11:20:00,66.6,66.0,29.61,NNW,336,4.0,4.0,98,0.00,,,0.47,Wunderground v.1.13,2013-07-19 15:20:00,
2013-07-19 11:30:00,66.9,66.6,29.59,WNW,295,5.0,5.0,99,0.00,,,0.47,Wunderground v.1.13,2013-07-19 15:30:00,
2013-07-19 11:40:00,67.2,66.9,29.59,North,351,5.0,9.0,99,0.00,,,0.47,Wunderground v.1.13,2013-07-19 15:40:00,
2013-07-19 11:50:00,67.6,67.0,29.58,West,280,5.0,5.0,98,0.00,,,0.47,Wunderground v.1.13,2013-07-19 15:50:00,
2013-07-19 12:00:00,67.8,67.2,29.58,WNW,298,4.0,11.0,98,0.00,,,0.47,Wunderground v.1.13,2013-07-19 16:00:00,
2013-07-19 12:10:00,68.7,68.4,29.58,North,355,4.0,4.0,99,0.00,,,0.47,Wunderground v.1.13,2013-07-19 16:10:00,
2013-07-19 12:20:00,70.5,69.3,29.57,WNW,295,5.0,8.0,96,0.00,,,0.47,Wunderground v.1.13,2013-07-19 16:20:00,
2013-07-19 12:30:00,71.6,70.1,29.56,North,355,4.0,9.0,95,0.00,,,0.47,Wunderground v.1.13,2013-07-19 16:30:00,
2013-07-19 12:40:00,73.0,71.2,29.55,NW,312,4.0,4.0,94,0.00,,,0.47,Wunderground v.1.13,2013-07-19 16:40:00,
2013-07-19 12:50:00,73.6,71.1,29.54,West,269,6.0,6.0,92,0.00,,,0.47,Wunderground v.1.13,2013-07-19 16:50:00,
2013-07-19 13:00:00,74.4,71.6,29.54,North,11,4.0,4.0,91,0.00,,,0.47,Wunderground v.1.13,2013-07-19 17:00:00,
2013-07-19 13:10:00,76.1,72.6,29.54,West,280,4.0,8.0,89,0.00,,,0.47,Wunderground v.1.13,2013-07-19 17:10:00,
2013-07-19 13:20:00,75.9,71.8,29.54,East,82,2.0,3.0,87,0.00,,,0.47,Wunderground v.1.13,2013-07-19 17:20:00,
2013-07-19 13:30:00,74.9,71.1,29.54,East,89,3.0,3.0,88,0.00,,,0.47,Wunderground v.1.13,2013-07-19 17:30:00,
2013-07-19 13:40:00,73.9,70.8,29.53,East,92,3.0,3.0,90,0.00,,,0.47,Wunderground v.1.13,2013-07-19 17:40:00,
2013-07-19 13:50:00,72.9,70.4,29.53,NW,320,4.0,4.0,92,0.00,,,0.47,Wunderground v.1.13,2013-07-19 17:50:00,
2013-07-19 14:00:00,72.3,70.5,29.52,NNW,346,2.0,2.0,94,0.00,,,0.47,Wunderground v.1.13,2013-07-19 18:00:00,
2013-07-19 14:10:00,72.2,70.4,29.52,East,98,2.0,5.0,94,0.00,,,0.47,Wunderground v.1.13,2013-07-19 18:10:00,
2013-07-19 14:20:00,72.1,70.3,29.52,NNE,30,2.0,5.0,94,0.00,,,0.47,Wunderground v.1.13,2013-07-19 18:20:00,
2013-07-19 14:30:00,72.1,70.3,29.52,NNW,331,3.0,4.0,94,0.00,,,0.48,Wunderground v.1.13,2013-07-19 18:30:00,
2013-07-19 14:40:00,72.2,70.7,29.52,WNW,299,3.0,3.0,95,0.00,,,0.48,Wunderground v.1.13,2013-07-19 18:40:00,
2013-07-19 14:50:00,72.2,70.7,29.51,NNW,337,3.0,3.0,95,0.00,,,0.48,Wunderground v.1.13,2013-07-19 18:50:00,
2013-07-19 15:00:00,72.4,70.9,29.50,WNW,302,3.0,4.0,95,0.00,,,0.48,Wunderground v.1.13,2013-07-19 19:00:00,
2013-07-19 15:10:00,73.9,71.7,29.50,NNE,29,3.0,3.0,93,0.00,,,0.48,Wunderground v.1.13,2013-07-19 19:10:00,
2013-07-19 15:20:00,74.9,71.8,29.50,NE,39,3.0,3.0,90,0.00,,,0.48,Wunderground v.1.13,2013-07-19 19:20:00,
2013-07-19 15:30:00,75.7,72.6,29.49,WNW,287,3.0,3.0,90,0.00,,,0.48,Wunderground v.1.13,2013-07-19 19:30:00,
2013-07-19 15:40:00,76.6,73.1,29.50,NNW,339,3.0,3.0,89,0.00,,,0.48,Wunderground v.1.13,2013-07-19 19:40:00,
2013-07-19 15:50:00,77.5,73.0,29.49,North,355,4.0,4.0,86,0.00,,,0.48,Wunderground v.1.13,2013-07-19 19:50:00,
2013-07-19 16:00:00,77.9,73.4,29.49,WNW,284,4.0,4.0,86,0.00,,,0.48,Wunderground v.1.13,2013-07-19 20:00:00,
2013-07-19 16:10:00,77.9,73.7,29.49,NNW,339,3.0,6.0,87,0.00,,,0.48,Wunderground v.1.13,2013-07-19 20:10:00,
2013-07-19 16:20:00,78.6,73.4,29.48,West,273,3.0,3.0,84,0.00,,,0.48,Wunderground v.1.13,2013-07-19 20:20:00,
2013-07-19 16:30:00,78.3,73.8,29.48,North,11,2.0,2.0,86,0.00,,,0.48,Wunderground v.1.13,2013-07-19 20:30:00,
2013-07-19 16:40:00,78.8,73.9,29.48,NNW,345,2.0,6.0,85,0.00,,,0.48,Wunderground v.1.13,2013-07-19 20:40:00,
2013-07-19 16:50:00,79.7,73.7,29.47,East,90,2.0,3.0,82,0.00,,,0.48,Wunderground v.1.13,2013-07-19 20:50:00,
2013-07-19 17:00:00,80.4,74.0,29.47,WSW,242,2.0,5.0,81,0.00,,,0.48,Wunderground v.1.13,2013-07-19 21:00:00,
2013-07-19 17:10:00,79.0,72.7,29.47,East,89,3.0,3.0,81,0.00,,,0.48,Wunderground v.1.13,2013-07-19 21:10:00,
2013-07-19 17:20:00,77.9,73.0,29.47,North,350,2.0,2.0,85,0.00,,,0.48,Wunderground v.1.13,2013-07-19 21:20:00,
2013-07-19 17:30:00,77.1,72.9,29.47,NNE,15,3.0,4.0,87,0.00,,,0.48,Wunderground v.1.13,2013-07-19 21:30:00,
2013-07-19 17:40:00,76.5,73.0,29.47,North,360,2.0,4.0,89,0.00,,,0.48,Wunderground v.1.13,2013-07-19 21:40:00,
2013-07-19 17:50:00,76.1,73.0,29.46,WNW,286,2.0,5.0,90,0.00,,,0.48,Wunderground v.1.13,2013-07-19 21:50:00,
2013-07-19 18:00:00,75.8,73.0,29.46,North,355,2.0,2.0,91,0.00,,,0.48,Wunderground v.1.13,2013-07-19 22:00:00,
2013-07-19 18:10:00,75.5,73.0,29.45,NNW,344,2.0,6.0,92,0.00,,,0.48,Wunderground v.1.13,2013-07-19 22:10:00,
2013-07-19 18:20:00,75.1,72.9,29.45,NW,312,3.0,3.0,93,0.00,,,0.48,Wunderground v.1.13,2013-07-19 22:20:00,
2013-07-19 18:30:00,75.1,72.9,29.46,NW,321,2.0,2.0,93,0.00,,,0.48,Wunderground v.1.13,2013-07-19 22:30:00,
2013-07-19 18:40:00,75.3,72.8,29.45,NW,324,2.0,2.0,92,0.00,,,0.48,Wunderground v.1.13,2013-07-19 22:40:00,
2013-07-19 18:50:00,75.3,72.8,29.45,NW,314,2.0,2.0,92,0.00,,,0.48,Wunderground v.1.13,2013-07-19 22:50:00,
2013-07-19 19:00:00,75.3,72.8,29.45,NW,304,1.0,1.0,92,0.00,,,0.48,Wunderground v.1.13,2013-07-19 23:00:00,
2013-07-19 19:10:00,75.1,72.9,29.45,NW,313,1.0,1.0,93,0.00,,,0.48,Wunderground v.1.13,2013-07-19 23:10:00,
2013-07-19 19:20:00,74.8,72.6,29.44,NNW,348,2.0,2.0,93,0.00,,,0.48,Wunderground v.1.13,2013-07-19 23:20:00,
2013-07-19 19:30:00,74.7,72.5,29.44,NNW,327,3.0,5.0,93,0.00,,,0.48,Wunderground v.1.13,2013-07-19 23:30:00,
2013-07-19 19:40:00,74.5,72.7,29.45,North,5,2.0,2.0,94,0.00,,,0.48,Wunderground v.1.13,2013-07-19 23:40:00,
2013-07-19 19:50:00,74.3,72.5,29.45,NNW,332,2.0,2.0,94,0.00,,,0.48,Wunderground v.1.13,2013-07-19 23:50:00,
2013-07-19 20:00:00,74.2,72.4,29.45,North,5,3.0,4.0,94,0.00,,,0.48,Wunderground v.1.13,2013-07-20 00:00:00,
2013-07-19 20:10:00,74.2,72.0,29.45,NW,306,3.0,5.0,93,0.00,,,0.48,Wunderground v.1.13,2013-07-20 00:10:00,
2013-07-19 20:20:00,74.1,71.9,29.44,WNW,296,3.0,3.0,93,0.00,,,0.48,Wunderground v.1.13,2013-07-20 00:20:00,
2013-07-19 20:30:00,74.1,71.6,29.44,NW,325,3.0,3.0,92,0.00,,,0.48,Wunderground v.1.13,2013-07-20 00:30:00,
2013-07-19 20:40:00,74.0,71.5,29.44,NNW,335,1.0,1.0,92,0.00,,,0.48,Wunderground v.1.13,2013-07-20 00:40:00,
2013-07-19 20:50:00,73.9,71.4,29.43,NNW,329,1.0,4.0,92,0.00,,,0.48,Wunderground v.1.13,2013-07-20 00:50:00,
2013-07-19 21:00:00,73.7,71.2,29.43,NW,315,2.0,4.0,92,0.00,,,0.48,Wunderground v.1.13,2013-07-20 01:00:00,
2013-07-19 21:10:00,73.5,70.7,29.43,North,5,1.0,1.0,91,0.00,,,0.48,Wunderground v.1.13,2013-07-20 01:10:00,
2013-07-19 21:20:00,73.5,70.7,29.44,NNW,331,1.0,1.0,91,0.00,,,0.48,Wunderground v.1.13,2013-07-20 01:20:00,
2013-07-19 21:30:00,73.2,70.4,29.44,NNW,344,1.0,5.0,91,0.00,,,0.48,Wunderground v.1.13,2013-07-20 01:30:00,
2013-07-19 21:40:00,73.1,70.0,29.43,NNW,333,2.0,3.0,90,0.00,,,0.48,Wunderground v.1.13,2013-07-20 01:40:00,
2013-07-19 21:50:00,72.9,70.1,29.43,NW,322,2.0,2.0,91,0.00,,,0.48,Wunderground v.1.13,2013-07-20 01:50:00,
2013-07-19 22:00:00,72.7,69.6,29.43,WNW,289,1.0,3.0,90,0.00,,,0.48,Wunderground v.1.13,2013-07-20 02:00:00,
2013-07-19 22:10:00,72.6,69.5,29.43,NW,323,2.0,2.0,90,0.00,,,0.48,Wunderground v.1.13,2013-07-20 02:10:00,
2013-07-19 22:20:00,72.4,69.3,29.43,East,96,2.0,2.0,90,0.00,,,0.48,Wunderground v.1.13,2013-07-20 02:20:00,
2013-07-19 22:30:00,72.3,68.9,29.43,SE,139,2.0,5.0,89,0.00,,,0.48,Wunderground v.1.13,2013-07-20 02:30:00,
2013-07-19 22:40:00,72.3,68.9,29.44,NNW,348,2.0,2.0,89,0.00,,,0.48,Wunderground v.1.13,2013-07-20 02:40:00,
2013-07-19 22:50:00,72.2,68.4,29.43,East,86,1.0,7.0,88,0.00,,,0.48,Wunderground v.1.13,2013-07-20 02:50:00,
2013-07-19 23:00:00,72.0,68.2,29.44,NW,314,2.0,2.0,88,0.00,,,0.48,Wunderground v.1.13,2013-07-20 03:00:00,
2013-07-19 23:10:00,71.8,68.1,29.43,NW,321,1.0,2.0,88,0.00,,,0.48,Wunderground v.1.13,2013-07-20 03:10:00,
2013-07-19 23:20:00,71.7,68.0,29.43,NNW,340,1.0,1.0,88,0.00,,,0.48,Wunderground v.1.13,2013-07-20 03:20:00,
2013-07-19 23:30:00,71.6,67.5,29.43,NNW,329,1.0,1.0,87,0.00,,,0.48,Wunderground v.1.13,2013-07-20 03:30:00,
2013-07-19 23:40:00,71.7,67.3,29.43,North,355,2.0,2.0,86,0.00,,,0.48,Wunderground v.1.13,2013-07-20 03:40:00,
2013-07-19 23:50:00,71.8,67.4,29.43,NE,52,2.0,2.0,86,0.00,,,0.48,Wunderground v.1.13,2013-07-20 03:50:00,